Terminal Aerodrome Forecast
Issued by NWS Grand Forks, ND

Home | Current Version | Previous Version | Text Only | Print | Product List | Glossary On
Versions: 1 2 3 4 5 6 7 8 9 10 11 12 13 14 15 16 17 18 19 20 21
486
FTUS43 KFGF 232339
TAFGFK
TAF
KGFK 232339Z 2400/2424 36010KT P6SM BKN030
     FM240400 36008KT P6SM SCT035
     FM241900 35012KT P6SM SCT090=

USA.gov is the U.S. government's official web portal to all federal, state and local government web resources and services.